createdAt,value
2022-12-18T00:00:32.923Z,101903.88
2022-12-18T00:04:21.928Z,101902.66
2022-12-18T00:08:11.915Z,101908.31
2022-12-18T00:11:24.050Z,101923.31
2022-12-18T00:15:05.556Z,101928.97
2022-12-18T00:18:43.174Z,101936.62
2022-12-18T00:22:21.063Z,101937.78
2022-12-18T00:26:02.324Z,101944.25
2022-12-18T00:29:42.581Z,101952.25
2022-12-18T00:33:16.999Z,101958.31
2022-12-18T00:36:55.855Z,101969.53
2022-12-18T00:40:13.632Z,101970.22
2022-12-18T00:43:37.131Z,101983.63
2022-12-18T00:47:04.906Z,101983.63
2022-12-18T00:50:29.643Z,101989.50
2022-12-18T00:54:21.228Z,101995.87
2022-12-18T00:58:02.908Z,102009.22
2022-12-18T01:01:24.896Z,102007.53
2022-12-18T01:04:58.367Z,102005.03
2022-12-18T01:08:24.770Z,102007.56
2022-12-18T01:11:56.451Z,102005.97
2022-12-18T01:15:30.725Z,102019.56
2022-12-18T01:19:11.554Z,102016.59
2022-12-18T01:22:42.703Z,102018.91
2022-12-18T01:26:48.986Z,102020.97
2022-12-18T01:30:16.982Z,102030.47
2022-12-18T01:33:54.306Z,102032.78
2022-12-18T01:36:58.049Z,102037.13
2022-12-18T01:40:00.810Z,102035.94
2022-12-18T01:43:47.576Z,102030.19
2022-12-18T01:47:04.977Z,102043.87
2022-12-18T01:50:44.669Z,102048.22
2022-12-18T01:54:13.981Z,102053.63
2022-12-18T01:57:33.594Z,102047.69
2022-12-18T02:01:16.950Z,102051.69
2022-12-18T02:05:14.218Z,102056.38
2022-12-18T02:09:13.768Z,102061.03
2022-12-18T02:13:16.789Z,102074.72
2022-12-18T02:17:05.150Z,102082.38
2022-12-18T02:20:37.664Z,102074.47
2022-12-18T02:24:47.557Z,102077.47
2022-12-18T02:28:29.465Z,102082.94
2022-12-18T02:31:57.424Z,102083.34
2022-12-18T02:35:42.785Z,102088.09
2022-12-18T02:39:15.410Z,102093.25
2022-12-18T02:42:44.216Z,102101.66
2022-12-18T02:46:26.995Z,102105.38
2022-12-18T02:50:06.941Z,102106.81
2022-12-18T02:54:00.264Z,102106.91
2022-12-18T02:57:41.061Z,102106.44
2022-12-18T03:01:18.465Z,102125.56
2022-12-18T03:05:15.634Z,102126.06
2022-12-18T03:08:52.414Z,102127.94
2022-12-18T03:12:32.793Z,102128.97
2022-12-18T03:16:01.544Z,102138.03
2022-12-18T03:19:25.741Z,102144.22
2022-12-18T03:22:54.865Z,102143.31
2022-12-18T03:26:36.519Z,102139.97
2022-12-18T03:30:16.179Z,102140.50
2022-12-18T03:34:01.074Z,102157.66
2022-12-18T03:37:56.972Z,102158.38
2022-12-18T03:41:34.035Z,102165.06
2022-12-18T03:45:16.778Z,102166.50
2022-12-18T03:48:48.699Z,102186.53
2022-12-18T03:52:38.460Z,102176.19
2022-12-18T03:55:44.093Z,102183.50
2022-12-18T03:59:28.523Z,102180.91
2022-12-18T04:03:12.592Z,102174.41
2022-12-18T04:06:54.560Z,102176.19
2022-12-18T04:10:02.865Z,102175.31
2022-12-18T04:13:36.401Z,102185.97
2022-12-18T04:17:19.310Z,102189.19
2022-12-18T04:20:53.774Z,102187.25
2022-12-18T04:24:23.473Z,102197.69
2022-12-18T04:27:58.963Z,102202.31
2022-12-18T04:31:44.225Z,102208.84
2022-12-18T04:34:52.633Z,102201.91
2022-12-18T04:38:28.380Z,102209.03
2022-12-18T04:42:00.022Z,102208.06
2022-12-18T04:45:24.659Z,102218.69
2022-12-18T04:49:02.532Z,102227.47
2022-12-18T04:52:33.431Z,102229.69
2022-12-18T04:55:36.819Z,102239.22
2022-12-18T04:59:06.241Z,102244.34
2022-12-18T05:02:40.471Z,102246.41
2022-12-18T05:05:46.930Z,102248.25
2022-12-18T05:09:04.603Z,102246.19
2022-12-18T05:12:59.984Z,102250.91
2022-12-18T05:16:43.304Z,102249.47
2022-12-18T05:20:39.612Z,102262.06
2022-12-18T05:24:00.815Z,102258.03
2022-12-18T05:27:29.580Z,102263.19
2022-12-18T05:31:05.588Z,102258.13
2022-12-18T05:34:40.600Z,102267.97
2022-12-18T05:38:14.825Z,102282.72
2022-12-18T05:41:47.736Z,102284.94
2022-12-18T05:45:07.159Z,102292.88
2022-12-18T05:48:43.907Z,102292.13
2022-12-18T05:52:22.405Z,102296.00
2022-12-18T05:55:50.270Z,102300.69
2022-12-18T05:59:09.139Z,102301.50
2022-12-18T06:02:28.051Z,102303.81
2022-12-18T06:06:02.157Z,102304.66
2022-12-18T06:09:44.016Z,102300.06
2022-12-18T06:13:14.523Z,102307.50
2022-12-18T06:16:34.558Z,102309.62
2022-12-18T06:20:09.243Z,102324.53
2022-12-18T06:23:38.257Z,102313.16
2022-12-18T06:26:44.307Z,102320.97
2022-12-18T06:30:12.483Z,102328.69
2022-12-18T06:33:55.532Z,102336.34
2022-12-18T06:37:12.860Z,102347.91
2022-12-18T06:40:56.595Z,102352.72
2022-12-18T06:44:13.678Z,102353.81
2022-12-18T06:47:42.614Z,102363.94
2022-12-18T06:51:14.284Z,102361.53
2022-12-18T06:55:09.413Z,102361.81
2022-12-18T06:58:15.957Z,102371.66
2022-12-18T07:02:19.527Z,102378.75
2022-12-18T07:05:51.856Z,102386.22
2022-12-18T07:09:10.729Z,102392.34
2022-12-18T07:12:34.421Z,102405.00
2022-12-18T07:16:40.002Z,102404.25
2022-12-18T07:20:27.184Z,102408.50
2022-12-18T07:23:49.491Z,102417.59
2022-12-18T07:27:14.158Z,102423.91
2022-12-18T07:30:39.516Z,102427.97
2022-12-18T07:34:29.365Z,102431.00
2022-12-18T07:38:02.765Z,102444.34
2022-12-18T07:41:14.273Z,102441.56
2022-12-18T07:45:03.217Z,102445.31
2022-12-18T07:49:13.165Z,102449.44
2022-12-18T07:52:18.426Z,102457.31
2022-12-18T07:56:29.639Z,102467.25
2022-12-18T07:59:57.050Z,102466.12
2022-12-18T08:03:43.353Z,102477.75
2022-12-18T08:07:02.991Z,102482.84
2022-12-18T08:10:09.027Z,102483.94
2022-12-18T08:13:43.904Z,102489.75
2022-12-18T08:17:24.745Z,102494.81
2022-12-18T08:20:53.595Z,102494.03
2022-12-18T08:24:03.538Z,102495.47
2022-12-18T08:28:11.623Z,102496.53
2022-12-18T08:31:32.957Z,102500.16
2022-12-18T08:35:17.556Z,102508.13
2022-12-18T08:38:53.578Z,102523.34
2022-12-18T08:42:32.389Z,102515.19
2022-12-18T08:46:00.763Z,102511.13
2022-12-18T08:49:07.203Z,102512.47
2022-12-18T08:52:37.012Z,102514.84
2022-12-18T08:56:10.962Z,102525.50
2022-12-18T08:59:29.898Z,102520.50
2022-12-18T09:03:20.586Z,102521.00
2022-12-18T09:06:45.955Z,102524.13
2022-12-18T09:10:24.715Z,102532.72
2022-12-18T09:13:48.046Z,102537.25
2022-12-18T09:17:43.525Z,102546.72
2022-12-18T09:21:13.969Z,102534.69
2022-12-18T09:24:31.710Z,102539.81
2022-12-18T09:27:35.898Z,102540.94
2022-12-18T09:31:09.048Z,102533.53
2022-12-18T09:34:32.085Z,102531.34
2022-12-18T09:37:55.677Z,102542.00
2022-12-18T09:41:33.644Z,102535.41
2022-12-18T09:45:04.873Z,102540.75
2022-12-18T09:48:50.066Z,102540.69
2022-12-18T09:52:35.599Z,102534.22
2022-12-18T09:55:55.892Z,102542.34
2022-12-18T09:59:37.484Z,102548.41
2022-12-18T10:03:34.920Z,102534.84
2022-12-18T10:07:09.436Z,102536.97
2022-12-18T10:10:37.982Z,102530.88
2022-12-18T10:14:40.094Z,102535.44
2022-12-18T10:18:21.675Z,102525.19
2022-12-18T10:21:41.377Z,102520.78
2022-12-18T10:25:00.155Z,102524.41
2022-12-18T10:28:14.660Z,102516.41
2022-12-18T10:31:25.083Z,102523.72
2022-12-18T10:34:28.098Z,102512.63
2022-12-18T10:37:35.627Z,102511.44
2022-12-18T10:41:00.358Z,102512.50
2022-12-18T10:44:37.733Z,102509.06
2022-12-18T10:47:51.291Z,102507.09
2022-12-18T10:51:21.600Z,102516.56
2022-12-18T10:54:54.232Z,102513.00
2022-12-18T10:58:33.870Z,102512.50
2022-12-18T11:01:59.828Z,102509.75
2022-12-18T11:05:42.319Z,102517.50
2022-12-18T11:09:23.947Z,102509.25
2022-12-18T11:12:29.723Z,102510.50
2022-12-18T11:15:34.522Z,102502.84
2022-12-18T11:18:39.098Z,102503.59
2022-12-18T11:21:57.273Z,102501.13
2022-12-18T11:28:39.131Z,102495.03
2022-12-18T11:31:43.114Z,102492.84
2022-12-18T11:35:00.673Z,102492.00
2022-12-18T11:38:19.933Z,102491.69
2022-12-18T11:42:13.055Z,102481.00
2022-12-18T11:45:19.403Z,102485.53
2022-12-18T11:48:39.092Z,102481.03
2022-12-18T11:52:37.298Z,102477.72
2022-12-18T11:55:47.875Z,102489.28
2022-12-18T11:59:21.288Z,102474.88
2022-12-18T12:02:35.063Z,102477.47
2022-12-18T12:05:57.248Z,102478.00
2022-12-18T12:09:29.039Z,102475.94
2022-12-18T12:12:51.227Z,102470.87
2022-12-18T12:16:11.198Z,102477.47
2022-12-18T12:20:09.993Z,102477.03
2022-12-18T12:27:36.535Z,102464.97
2022-12-18T12:31:38.492Z,102468.00
2022-12-18T12:43:26.806Z,102482.69
2022-12-18T12:46:48.494Z,102481.31
2022-12-18T12:50:20.631Z,102484.19
2022-12-18T12:53:49.481Z,102490.94
2022-12-18T12:58:29.457Z,102488.75
2022-12-18T13:02:17.278Z,102494.78
2022-12-18T13:06:15.652Z,102507.41
2022-12-18T13:10:25.713Z,102505.47
2022-12-18T13:13:59.720Z,102507.41
2022-12-18T13:17:38.366Z,102507.09
2022-12-18T13:21:30.730Z,102513.66
2022-12-18T13:25:37.618Z,102523.09
2022-12-18T13:29:16.560Z,102505.19
2022-12-18T13:32:42.768Z,102517.66
2022-12-18T13:36:35.070Z,102516.88
2022-12-18T13:40:45.122Z,102524.75
2022-12-18T13:44:40.907Z,102528.72
2022-12-18T13:48:27.604Z,102532.88
2022-12-18T13:52:23.001Z,102532.75
2022-12-18T13:55:47.289Z,102538.41
2022-12-18T13:59:17.533Z,102538.84
2022-12-18T14:03:02.170Z,102543.97
2022-12-18T14:06:40.845Z,102537.91
2022-12-18T14:13:43.535Z,102548.53
2022-12-18T14:17:01.063Z,102546.81
2022-12-18T14:20:36.717Z,102545.81
2022-12-18T14:24:19.787Z,102552.44
2022-12-18T14:28:10.580Z,102554.94
2022-12-18T14:31:38.381Z,102541.63
2022-12-18T14:35:15.200Z,102550.41
2022-12-18T14:38:55.907Z,102552.78
2022-12-18T14:42:23.551Z,102549.91
2022-12-18T14:45:43.860Z,102561.75
2022-12-18T14:49:25.230Z,102572.53
2022-12-18T14:52:49.655Z,102576.31
2022-12-18T14:56:21.153Z,102591.75
2022-12-18T15:00:09.459Z,102597.97
2022-12-18T15:03:48.902Z,102598.75
2022-12-18T15:07:25.337Z,102596.69
2022-12-18T15:11:01.443Z,102593.78
2022-12-18T15:14:42.780Z,102607.94
2022-12-18T15:18:22.187Z,102613.28
2022-12-18T15:21:59.112Z,102622.16
2022-12-18T15:25:40.651Z,102626.53
2022-12-18T15:29:00.995Z,102627.78
2022-12-18T15:32:31.011Z,102636.94
2022-12-18T15:36:10.385Z,102634.22
2022-12-18T15:39:42.768Z,102640.78
2022-12-18T15:43:30.677Z,102649.88
2022-12-18T15:50:49.130Z,102653.47
2022-12-18T15:58:37.963Z,102670.22
2022-12-18T16:02:23.781Z,102670.59
2022-12-18T16:06:04.198Z,102677.84
2022-12-18T16:09:44.424Z,102670.69
2022-12-18T16:13:21.856Z,102672.00
2022-12-18T16:17:30.070Z,102680.91
2022-12-18T16:21:03.001Z,102683.87
2022-12-18T16:24:39.643Z,102681.47
2022-12-18T16:28:26.300Z,102694.97
2022-12-18T16:32:02.257Z,102697.75
2022-12-18T16:35:32.003Z,102705.44
2022-12-18T16:38:57.608Z,102704.97
2022-12-18T16:42:36.630Z,102702.69
2022-12-18T16:46:00.050Z,102704.06
2022-12-18T16:49:04.607Z,102709.41
2022-12-18T16:52:39.100Z,102720.69
2022-12-18T16:56:14.652Z,102727.91
2022-12-18T16:59:36.881Z,102731.22
2022-12-18T17:03:11.957Z,102731.78
2022-12-18T17:06:53.132Z,102732.13
2022-12-18T17:10:21.388Z,102729.00
2022-12-18T17:13:56.096Z,102719.06
2022-12-18T17:17:27.479Z,102717.31
2022-12-18T17:20:46.094Z,102712.22
2022-12-18T17:24:21.937Z,102709.56
2022-12-18T17:27:55.145Z,102699.47
2022-12-18T17:31:42.218Z,102701.50
2022-12-18T17:35:13.562Z,102713.34
2022-12-18T17:39:06.927Z,102705.41
2022-12-18T17:42:49.191Z,102712.59
2022-12-18T17:50:17.544Z,102727.34
2022-12-18T17:54:02.845Z,102721.78
2022-12-18T17:58:35.558Z,102730.38
2022-12-18T18:02:27.521Z,102728.97
2022-12-18T18:06:34.899Z,102724.31
2022-12-18T18:10:19.755Z,102726.03
2022-12-18T18:18:16.694Z,102720.88
2022-12-18T18:21:52.865Z,102729.34
2022-12-18T18:25:31.797Z,102731.84
2022-12-18T18:36:37.026Z,102725.37
2022-12-18T18:41:17.595Z,102722.59
2022-12-18T18:45:25.321Z,102736.94
2022-12-18T18:48:54.749Z,102748.44
2022-12-18T18:52:25.792Z,102752.50
2022-12-18T19:03:29.019Z,102760.06
2022-12-18T19:07:01.801Z,102754.34
2022-12-18T19:10:25.609Z,102760.75
2022-12-18T19:17:50.010Z,102764.34
2022-12-18T19:21:34.938Z,102767.41
2022-12-18T19:25:12.480Z,102771.50
2022-12-18T19:28:38.674Z,102778.31
2022-12-18T19:31:58.646Z,102793.78
2022-12-18T19:35:25.872Z,102790.09
2022-12-18T19:39:16.471Z,102791.66
2022-12-18T19:42:38.842Z,102801.97
2022-12-18T19:46:24.398Z,102800.03
2022-12-18T19:49:57.382Z,102803.97
2022-12-18T19:53:41.753Z,102801.22
2022-12-18T19:56:53.628Z,102811.53
2022-12-18T20:00:28.967Z,102813.06
2022-12-18T20:04:09.257Z,102812.56
2022-12-18T20:07:38.513Z,102819.41
2022-12-18T20:11:23.905Z,102811.66
2022-12-18T20:18:41.044Z,102820.75
2022-12-18T20:22:11.354Z,102822.97
2022-12-18T20:26:03.637Z,102830.28
2022-12-18T20:29:38.437Z,102825.22
2022-12-18T20:33:30.146Z,102840.19
2022-12-18T20:36:50.853Z,102836.19
2022-12-18T20:40:31.968Z,102840.69
2022-12-18T20:44:20.650Z,102841.03
2022-12-18T20:47:37.126Z,102843.47
2022-12-18T20:51:10.512Z,102845.31
2022-12-18T20:54:51.663Z,102843.81
2022-12-18T20:58:27.151Z,102852.53
2022-12-18T21:02:06.165Z,102846.31
2022-12-18T21:05:41.565Z,102842.69
2022-12-18T21:09:00.175Z,102854.81
2022-12-18T21:12:42.700Z,102854.31
2022-12-18T21:16:11.189Z,102860.31
2022-12-18T21:19:49.822Z,102863.41
2022-12-18T21:23:20.332Z,102862.06
2022-12-18T21:26:56.581Z,102866.31
2022-12-18T21:30:28.629Z,102865.53
2022-12-18T21:34:05.822Z,102864.13
2022-12-18T21:37:23.936Z,102859.81
2022-12-18T21:40:53.236Z,102858.84
2022-12-18T21:44:25.629Z,102849.91
2022-12-18T21:48:00.002Z,102849.84
2022-12-18T21:51:32.885Z,102848.81
2022-12-18T21:55:00.738Z,102835.31
2022-12-18T21:58:30.684Z,102846.22
2022-12-18T22:02:11.223Z,102845.31
2022-12-18T22:05:28.403Z,102839.31
2022-12-18T22:09:16.710Z,102843.66
2022-12-18T22:12:39.783Z,102833.50
2022-12-18T22:16:15.130Z,102837.66
2022-12-18T22:23:43.849Z,102842.25
2022-12-18T22:27:19.099Z,102840.47
2022-12-18T22:31:01.073Z,102840.59
2022-12-18T22:34:36.925Z,102841.56
2022-12-18T22:38:17.328Z,102847.50
2022-12-18T22:41:53.540Z,102846.97
2022-12-18T22:45:24.021Z,102846.16
2022-12-18T22:48:50.497Z,102853.87
2022-12-18T22:51:55.611Z,102860.53
2022-12-18T22:55:28.510Z,102857.63
2022-12-18T22:58:47.724Z,102864.47
2022-12-18T23:02:36.584Z,102862.38
2022-12-18T23:06:08.811Z,102865.44
2022-12-18T23:09:35.206Z,102860.28
2022-12-18T23:13:03.482Z,102867.37
2022-12-18T23:16:24.091Z,102873.75
2022-12-18T23:20:16.836Z,102865.38
2022-12-18T23:23:56.972Z,102864.59
2022-12-18T23:27:39.649Z,102872.84
2022-12-18T23:31:17.625Z,102874.59
2022-12-18T23:34:45.190Z,102872.59
2022-12-18T23:38:37.301Z,102865.25
2022-12-18T23:42:38.709Z,102866.41
2022-12-18T23:45:57.811Z,102866.56
2022-12-18T23:49:26.044Z,102864.56
2022-12-18T23:52:45.108Z,102859.88
2022-12-18T23:56:09.350Z,102865.72
2022-12-18T23:59:58.392Z,102869.03
